createdAt,value
2022-10-04T00:04:35.276Z,1.65
2022-10-04T00:10:04.451Z,2.33
2022-10-04T00:15:34.931Z,2.35
2022-10-04T00:20:59.255Z,2.13
2022-10-04T00:26:22.889Z,2.38
2022-10-04T00:32:11.618Z,2.57
2022-10-04T00:38:21.446Z,1.95
2022-10-04T00:43:48.294Z,2.30
2022-10-04T00:49:12.397Z,2.05
2022-10-04T00:54:41.438Z,2.05
2022-10-04T01:00:07.483Z,1.60
2022-10-04T01:05:41.921Z,1.30
2022-10-04T01:11:18.007Z,2.40
2022-10-04T01:16:38.760Z,2.13
2022-10-04T01:22:05.187Z,3.05
2022-10-04T01:27:35.543Z,1.67
2022-10-04T01:32:56.054Z,2.97
2022-10-04T01:38:17.543Z,2.40
2022-10-04T01:43:43.682Z,1.60
2022-10-04T01:49:09.974Z,1.52
2022-10-04T01:54:36.382Z,2.20
2022-10-04T02:00:08.301Z,2.17
2022-10-04T02:05:38.420Z,1.60
2022-10-04T02:11:00.966Z,1.83
2022-10-04T02:16:22.784Z,1.70
2022-10-04T02:21:44.603Z,1.75
2022-10-04T02:27:06.278Z,2.55
2022-10-04T02:32:48.099Z,1.70
2022-10-04T02:38:22.158Z,2.03
2022-10-04T02:43:53.529Z,2.17
2022-10-04T02:49:29.843Z,2.38
2022-10-04T02:55:07.115Z,2.60
2022-10-04T03:00:31.950Z,2.00
2022-10-04T03:06:06.439Z,2.63
2022-10-04T03:11:35.507Z,2.40
2022-10-04T03:17:00.664Z,3.13
2022-10-04T03:22:23.270Z,2.78
2022-10-04T03:27:44.582Z,2.20
2022-10-04T03:33:05.830Z,3.38
2022-10-04T03:38:27.730Z,2.58
2022-10-04T03:43:50.255Z,2.90
2022-10-04T03:49:17.357Z,3.38
2022-10-04T03:54:38.218Z,3.55
2022-10-04T03:59:59.515Z,2.83
2022-10-04T04:05:25.594Z,2.95
2022-10-04T04:10:50.453Z,3.25
2022-10-04T04:16:11.604Z,2.35
2022-10-04T04:21:32.985Z,3.28
2022-10-04T04:26:58.004Z,2.30
2022-10-04T04:32:24.241Z,3.72
2022-10-04T04:37:44.827Z,2.90
2022-10-04T04:43:05.834Z,3.03
2022-10-04T04:48:26.556Z,2.75
2022-10-04T04:53:48.312Z,3.17
2022-10-04T04:59:09.247Z,2.58
2022-10-04T05:04:31.409Z,3.20
2022-10-04T05:09:52.158Z,2.75
2022-10-04T05:15:12.961Z,2.85
2022-10-04T05:20:34.880Z,3.17
2022-10-04T05:25:55.989Z,2.65
2022-10-04T05:31:27.659Z,3.00
2022-10-04T05:37:04.024Z,2.90
2022-10-04T05:42:45.218Z,2.65
2022-10-04T05:48:09.030Z,3.92
2022-10-04T05:53:33.101Z,2.92
2022-10-04T06:05:09.538Z,3.03
2022-10-04T06:10:52.463Z,2.88
2022-10-04T06:16:35.007Z,3.35
2022-10-04T06:22:12.968Z,3.33
2022-10-04T06:27:41.575Z,3.70
2022-10-04T06:33:27.270Z,2.83
2022-10-04T06:39:07.295Z,2.90
2022-10-04T06:44:44.367Z,3.92
2022-10-04T06:50:49.931Z,3.88
2022-10-04T06:56:27.647Z,3.38
2022-10-04T07:01:51.237Z,3.75
2022-10-04T07:07:37.656Z,2.90
2022-10-04T07:13:04.136Z,3.28
2022-10-04T07:18:37.721Z,4.13
2022-10-04T07:24:03.872Z,4.05
2022-10-04T07:29:28.844Z,3.38
2022-10-04T07:35:16.845Z,4.55
2022-10-04T07:40:40.891Z,3.65
2022-10-04T07:46:37.664Z,2.83
2022-10-04T07:52:27.736Z,5.47
2022-10-04T07:58:25.149Z,4.50
2022-10-04T08:03:58.529Z,4.47
2022-10-04T08:09:38.040Z,5.03
2022-10-04T08:15:13.615Z,5.45
2022-10-04T08:21:00.335Z,4.40
2022-10-04T08:26:40.419Z,4.20
2022-10-04T08:32:20.251Z,5.32
2022-10-04T08:37:59.643Z,5.45
2022-10-04T08:43:49.473Z,5.32
2022-10-04T08:49:31.597Z,3.28
2022-10-04T08:55:34.958Z,4.15
2022-10-04T09:01:27.729Z,3.47
2022-10-04T09:07:09.944Z,4.45
2022-10-04T09:12:59.892Z,2.85
2022-10-04T09:18:46.250Z,4.38
2022-10-04T09:24:32.315Z,4.50
2022-10-04T09:30:18.839Z,5.05
2022-10-04T09:36:09.846Z,4.07
2022-10-04T09:41:58.396Z,4.72
2022-10-04T09:47:45.277Z,4.05
2022-10-04T09:53:35.666Z,4.20
2022-10-04T09:59:32.324Z,3.63
2022-10-04T10:05:36.205Z,4.30
2022-10-04T10:11:45.842Z,4.70
2022-10-04T10:17:20.586Z,5.25
2022-10-04T10:23:02.838Z,4.10
2022-10-04T10:28:47.719Z,4.78
2022-10-04T10:40:28.905Z,4.00
2022-10-04T10:46:03.823Z,4.40
2022-10-04T10:51:35.954Z,4.82
2022-10-04T10:57:14.851Z,4.25
2022-10-04T11:03:21.823Z,4.25
2022-10-04T11:09:28.470Z,3.95
2022-10-04T11:15:14.402Z,4.07
2022-10-04T11:21:03.563Z,3.88
2022-10-04T11:26:52.019Z,4.80
2022-10-04T11:32:30.855Z,4.70
2022-10-04T11:38:14.764Z,4.53
2022-10-04T11:43:57.190Z,4.13
2022-10-04T11:49:25.899Z,4.53
2022-10-04T11:54:58.595Z,4.38
2022-10-04T12:00:25.415Z,4.88
2022-10-04T12:06:14.978Z,4.80
2022-10-04T12:12:13.815Z,4.63
2022-10-04T12:18:07.187Z,6.10
2022-10-04T12:24:07.429Z,6.53
2022-10-04T12:29:44.770Z,3.70
2022-10-04T12:35:14.695Z,5.13
2022-10-04T12:40:42.088Z,4.18
2022-10-04T12:46:19.041Z,4.60
2022-10-04T12:51:47.892Z,4.45
2022-10-04T12:57:26.801Z,3.30
2022-10-04T13:02:58.203Z,3.85
2022-10-04T13:08:43.416Z,3.53
2022-10-04T13:14:29.204Z,3.80
2022-10-04T13:20:29.747Z,4.05
2022-10-04T13:26:15.631Z,4.25
2022-10-04T13:31:49.553Z,4.15
2022-10-04T13:37:20.484Z,4.20
2022-10-04T13:43:09.023Z,4.95
2022-10-04T13:48:34.646Z,4.68
2022-10-04T13:54:40.313Z,4.68
2022-10-04T14:00:15.070Z,3.97
2022-10-04T14:06:12.357Z,3.03
2022-10-04T14:12:12.283Z,4.75
2022-10-04T14:18:19.814Z,4.72
2022-10-04T14:24:10.745Z,3.05
2022-10-04T14:29:34.335Z,5.28
2022-10-04T14:34:56.932Z,3.83
2022-10-04T14:40:31.017Z,5.38
2022-10-04T14:46:19.072Z,5.93
2022-10-04T14:52:19.823Z,5.63
2022-10-04T14:57:58.964Z,5.15
2022-10-04T15:03:34.200Z,6.57
2022-10-04T15:09:09.234Z,7.35
2022-10-04T15:14:36.750Z,5.15
2022-10-04T15:20:22.900Z,5.65
2022-10-04T15:25:51.926Z,5.25
2022-10-04T15:31:30.474Z,5.90
2022-10-04T15:37:19.960Z,5.72
2022-10-04T15:43:06.002Z,6.00
2022-10-04T15:48:55.948Z,5.85
2022-10-04T15:54:22.141Z,5.85
2022-10-04T15:59:53.590Z,6.38
2022-10-04T16:05:37.562Z,6.05
2022-10-04T16:11:34.255Z,7.18
2022-10-04T16:17:22.368Z,6.93
2022-10-04T16:23:23.971Z,6.85
2022-10-04T16:28:53.263Z,7.00
2022-10-04T16:34:48.035Z,7.13
2022-10-04T16:40:27.042Z,6.57
2022-10-04T16:45:53.428Z,5.13
2022-10-04T16:51:16.714Z,4.38
2022-10-04T16:56:58.139Z,5.63
2022-10-04T17:02:36.923Z,5.40
2022-10-04T17:08:17.464Z,5.05
2022-10-04T17:14:16.265Z,6.03
2022-10-04T17:19:48.041Z,5.40
2022-10-04T17:25:42.749Z,5.78
2022-10-04T17:31:06.098Z,4.53
2022-10-04T17:36:37.544Z,5.05
2022-10-04T17:42:07.778Z,5.35
2022-10-04T17:47:57.328Z,5.03
2022-10-04T17:53:44.801Z,4.47
2022-10-04T17:59:18.130Z,4.68
2022-10-04T18:04:49.342Z,5.15
2022-10-04T18:10:31.392Z,4.22
2022-10-04T18:16:17.696Z,4.35
2022-10-04T18:21:48.854Z,5.50
2022-10-04T18:27:18.760Z,5.63
2022-10-04T18:32:40.073Z,4.53
2022-10-04T18:38:21.627Z,4.63
2022-10-04T18:43:51.554Z,5.38
2022-10-04T18:49:25.407Z,4.40
2022-10-04T18:54:57.909Z,5.40
2022-10-04T19:00:37.366Z,4.88
2022-10-04T19:06:06.317Z,4.97
2022-10-04T19:11:50.891Z,5.57
2022-10-04T19:17:29.437Z,6.93
2022-10-04T19:23:04.684Z,5.30
2022-10-04T19:28:32.468Z,5.65
2022-10-04T19:34:05.176Z,5.20
2022-10-04T19:39:50.808Z,5.03
2022-10-04T19:53:20.084Z,5.13
2022-10-04T19:58:46.739Z,4.55
2022-10-04T20:04:33.851Z,4.93
2022-10-04T20:10:23.087Z,5.60
2022-10-04T20:15:47.351Z,5.78
2022-10-04T20:21:12.646Z,4.80
2022-10-04T20:27:01.164Z,7.10
2022-10-04T20:32:44.601Z,6.32
2022-10-04T20:38:30.516Z,7.00
2022-10-04T20:43:57.442Z,7.40
2022-10-04T20:49:18.658Z,5.47
2022-10-04T20:54:49.405Z,6.05
2022-10-04T21:00:18.642Z,6.65
2022-10-04T21:05:39.496Z,5.78
2022-10-04T21:11:13.243Z,6.30
2022-10-04T21:16:42.883Z,5.45
2022-10-04T21:22:05.219Z,6.65
2022-10-04T21:27:34.126Z,7.40
2022-10-04T21:32:54.436Z,7.03
2022-10-04T21:38:15.161Z,6.25
2022-10-04T21:43:35.550Z,7.03
2022-10-04T21:48:56.280Z,6.00
2022-10-04T21:54:16.703Z,7.43
2022-10-04T21:59:37.509Z,5.88
2022-10-04T22:04:58.009Z,6.45
2022-10-04T22:10:18.775Z,5.70
2022-10-04T22:15:40.516Z,6.25
2022-10-04T22:21:01.039Z,6.40
2022-10-04T22:26:22.875Z,6.35
2022-10-04T22:31:49.063Z,7.07
2022-10-04T22:37:13.057Z,6.22
2022-10-04T22:42:33.978Z,7.55
2022-10-04T22:47:57.886Z,7.50
2022-10-04T22:53:21.698Z,6.47
2022-10-04T22:58:42.628Z,7.20
2022-10-04T23:04:04.389Z,7.55
2022-10-04T23:09:25.174Z,7.25
2022-10-04T23:14:45.963Z,6.70
2022-10-04T23:20:13.511Z,8.13
2022-10-04T23:25:34.786Z,7.10
2022-10-04T23:31:04.940Z,7.40
2022-10-04T23:36:25.321Z,7.75
2022-10-04T23:41:45.769Z,7.70
2022-10-04T23:47:14.974Z,10.00
2022-10-04T23:52:38.989Z,7.20
2022-10-04T23:58:00.218Z,6.63
